Logo

Informe meteorológico de la semana en curso

  • Compartir en Google Plus
  • Compartir en Twitter
  • Compartir en Facebook
Nº de accesos al conjunto de datos: 158

Previsualización

API de datos Código HTML

_id codest paraje municipio periodo NDias tmin tmax tmed hrmin hrmax hrmed prec radmax radmed vvmed vvmax eto_pm_fao
1 AL31 Lebor Totana 15/09/2019 - 21/09/2019 3 18.6 27.5 22.3 59.6 95.0 81.4 0.2 1014 184.3 1.3 5.4 9.4
2 AL41 La Calavera Alhama 15/09/2019 - 21/09/2019 3 17.9 28.6 22.8 51.8 92.4 76.8 0.1 1023 202.7 1.5 9.2 10.8
3 AL52 Los Palomos Librilla 15/09/2019 - 21/09/2019 3 18.1 28.5 22.8 53.4 96.0 79.8 0.2 1021 171.7 0.9 5.8 8.9
4 AL62 Cañada Gallego Mazarrón 15/09/2019 - 21/09/2019 3 19.5 29.0 23.8 53.5 88.9 74.5 0.0 1047 226.5 1.3 8.6 11.3
5 AL91 Leiva Mazarrón 15/09/2019 - 21/09/2019 3 19.2 28.6 23.6 68.1 99.9 90.7 0.1 1090 213.7 1.5 8.5 10.2
6 CA12 La Palma Cartagena 15/09/2019 - 21/09/2019 3 20.0 28.1 23.8 57.4 90.3 78.7 0.2 993 203.6 1.2 9.1 10.1
7 CA21 Corvera Murcia 15/09/2019 - 21/09/2019 3 19.5 26.9 22.9 65.8 99.0 82.6 0.2 1052 181.2 1.9 8.0 9.3
8 CA42 Balsapintada Fuente Alamo 15/09/2019 - 21/09/2019 3 19.0 28.4 23.1 69.2 99.9 91.0 0.2 1016 191.5 0.8 5.2 9.1
9 CA52 La Aljorra Cartagena 15/09/2019 - 21/09/2019 3 19.5 28.0 23.3 63.9 98.1 83.2 0.0 1031 183.9 1.6 7.9 9.4
10 CA73 Los Belones Cartagena 15/09/2019 - 21/09/2019 3 19.9 27.1 23.4 65.2 94.5 86.1 0.0 975 160.9 1.6 10.3 8.1
11 CA91 Campillo Abajo Fuente Alamo 15/09/2019 - 21/09/2019 3 18.9 27.7 22.8 58.0 92.0 79.1 0.0 1103 194.9 0.6 5.9 9.2
12 CI22 Estación de Blanca Blanca 15/09/2019 - 21/09/2019 3 18.3 29.0 22.8 48.7 89.8 75.6 0.0 1063 194.0 0.7 5.5 9.5
13 CI32 Estación Ulea Ulea 15/09/2019 - 21/09/2019 3 18.8 28.5 23.0 56.0 99.9 83.8 1.2 1053 185.7 1.6 6.4 9.9
14 CI42 La Carrichosa Cieza 15/09/2019 - 21/09/2019 3 18.0 29.7 23.1 50.5 99.9 82.9 0.4 1111 211.7 0.8 8.8 10.0
15 CI52 Rotas Calasparra 15/09/2019 - 21/09/2019 3 18.1 29.2 22.6 47.0 91.6 74.8 1.8 1056 188.9 0.8 7.4 9.4
16 CI71 Llano de las olivericas Calasparra 15/09/2019 - 21/09/2019 3 18.6 29.3 22.9 51.3 99.9 84.8 0.0 970 199.8 0.8 8.9 9.6
17 CR12 Barranda Caravaca 15/09/2019 - 21/09/2019 3 14.3 23.9 18.6 55.8 92.7 80.3 0.0 995 195.5 0.9 6.7 8.8
18 CR32 El Chaparral Cehegin 15/09/2019 - 21/09/2019 3 15.7 27.5 21.2 50.6 95.9 79.4 0.0 1005 174.1 0.6 5.0 8.3
19 CR42 Venta Ulea Moratalla 15/09/2019 - 21/09/2019 3 17.4 27.4 21.6 53.0 94.2 79.8 0.0 1031 193.2 1.4 6.1 9.8
20 CR52 La Torrecica Cehegin 15/09/2019 - 21/09/2019 3 16.9 27.7 21.4 50.2 92.2 78.3 0.0 1039 186.2 0.4 7.1 8.6
21 JU12 Cª del Judio Jumilla 15/09/2019 - 21/09/2019 3 17.6 27.7 22.0 50.2 93.5 79.2 14.8 1029 206.6 1.6 8.5 10.1
22 JU42 Las Moratillas Yecla 15/09/2019 - 21/09/2019 3 15.9 26.1 20.0 56.3 99.9 87.2 0.4 944 154.1 1.1 7.5 7.3
23 JU52 Pinillos Yecla 15/09/2019 - 21/09/2019 3 16.2 26.1 19.8 53.4 97.9 84.3 0.1 1075 156.6 0.7 7.1 7.3
24 JU71 Las Encebras Jumilla 15/09/2019 - 21/09/2019 3 16.9 28.1 21.6 50.3 93.5 79.6 0.0 1037 208.2 1.6 9.0 10.1
25 JU81 Roman Jumilla 15/09/2019 - 21/09/2019 3 17.2 28.3 22.2 47.0 89.9 74.5 0.0 998 193.1 0.8 6.7 9.5
26 LO11 Purias Lorca 15/09/2019 - 21/09/2019 3 18.5 27.5 22.3 62.1 96.7 81.6 0.0 869 163.4 0.7 6.2 8.1
27 LO21 Pozohiguera Lorca 15/09/2019 - 21/09/2019 3 18.8 28.0 22.2 58.5 97.7 83.2 0.0 1169 195.6 2.0 7.7 10.0
28 LO31 La Pilica Aguilas 15/09/2019 - 21/09/2019 3 21.3 29.8 24.5 53.3 92.1 79.9 0.0 1088 204.7 1.2 7.5 10.6
29 LO41 La Paca Lorca 15/09/2019 - 21/09/2019 3 15.8 25.8 20.4 55.7 96.9 80.3 0.1 1098 201.6 1.3 5.3 9.8
30 LO51 Tebar Aguilas 15/09/2019 - 21/09/2019 3 19.6 27.7 22.8 57.6 97.8 80.1 0.1 1160 205.3 1.9 10.4 10.5
31 LO61 El Esparragal Puerto Lumbreras 15/09/2019 - 21/09/2019 3 18.1 27.6 22.4 55.0 93.0 77.5 0.0 1084 218.7 1.4 8.4 10.8
32 ML12 Yechar Mula 15/09/2019 - 21/09/2019 3 17.9 30.3 23.0 44.9 91.8 77.5 0.0 None None 0.6 3.1 9.6
33 ML21 Mula Mula 15/09/2019 - 21/09/2019 3 17.8 28.5 22.5 51.5 89.9 74.9 0.0 1090 196.2 1.4 5.8 10.4
34 MO12 Pilica Torres de Cotillas 15/09/2019 - 21/09/2019 3 19.7 28.4 23.4 60.0 99.9 84.1 0.2 925 186.1 1.3 5.6 9.6
35 MO22 Campotejar Molina Segura 15/09/2019 - 21/09/2019 3 18.8 29.4 23.3 43.9 93.7 75.9 0.0 982 181.7 1.0 5.6 9.7
36 MO31 El Llano Molina Segura 15/09/2019 - 21/09/2019 3 18.6 29.7 23.7 52.5 99.9 85.9 0.0 976 180.0 0.5 5.2 8.8
37 MO41 La Jaira Abanilla 15/09/2019 - 21/09/2019 3 18.7 28.7 22.8 49.5 91.4 76.6 0.0 945 188.9 0.9 6.2 9.5
38 MO51 Charco Taray Fortuna 15/09/2019 - 21/09/2019 3 19.4 29.2 23.3 55.6 99.3 83.9 0.2 1024 198.8 0.9 4.5 9.8
39 MO62 Loma del Aire Ojós 15/09/2019 - 21/09/2019 3 19.9 29.6 23.9 53.7 99.9 81.2 0.0 1072 147.6 0.6 5.5 7.8
40 MU31 La Vereda Murcia 15/09/2019 - 21/09/2019 3 19.2 29.4 23.8 56.2 99.9 80.6 0.1 966 168.3 0.9 6.5 8.9
41 MU52 Cabezo Plata Murcia 15/09/2019 - 21/09/2019 3 20.4 28.2 23.9 61.7 97.9 81.8 0.0 979 207.4 1.3 8.5 10.3
42 MU62 La Alberca Murcia 15/09/2019 - 21/09/2019 3 19.9 29.7 24.0 48.8 87.6 71.7 0.0 987 185.4 0.7 6.1 9.4
43 TP22 Santiago de la Ribera San Javier 15/09/2019 - 21/09/2019 3 18.9 28.4 23.7 57.3 90.2 77.5 0.3 996 207.6 1.1 9.8 10.2
44 TP42 Torre Blanca Torre Pacheco 15/09/2019 - 21/09/2019 3 19.6 28.7 23.8 60.3 94.9 82.3 0.0 891 207.5 1.4 10.6 10.2
45 TP52 El Mirador San Javier 15/09/2019 - 21/09/2019 3 19.4 27.8 23.4 55.9 94.6 79.7 0.0 1148 219.4 1.3 9.4 10.6
46 TP73 Los Infiernos Torre Pacheco 15/09/2019 - 21/09/2019 3 19.4 27.3 23.2 57.9 93.3 79.6 0.0 1090 225.0 2.0 10.6 11.2
47 TP91 Torre Pacheco Torre Pacheco 15/09/2019 - 21/09/2019 3 19.6 28.2 23.6 62.4 99.9 85.8 0.0 1004 201.5 1.0 8.4 9.7

Propiedades del conjunto de datos

Título
Informe meteorológico de la semana en curso
Descripción

Información sobre los datos meteorológicos medios de la semana en curso. Se incluye la información por cada una de las estaciones meteorológicas de la red SIAM gestionada por el Instituto Murciano de Investigación y Desarrollo Agrario y Alimentario (IMIDA). Los datos recogidos por las estaciones son validados al día siguiente de la toma de datos.

Categoría
Palabra clave / etiqueta
Publicador
Cobertura geográfica
Región de Murcia
Idioma
Español
Fecha de primera publicación
15/05/2018
Fecha de última modificación
19/09/2019
Licencia
Frecuencia de actualización
Diaria (cada día)
Diccionario de datos
La información se estructura en las siguientes columnas: Código de estación meteorológica, Nombre del paraje donde está ubicada la estación, Municipio donde está ubicada la estación, Fechas de toma de datos, número de días del ejercicio, Temperatura mínima (ºC), Temperatura máxima (ºC), Temperatura media (ºC), Humedad Relativa mínima (%), Humedad Relativa máxima (%),Humedad Relativa media (%),Precipitación (mm), radiación máxima (w/m2), radiación media (w/m2), Velocidad del Viento media (m/seg), Velocidad del Viento máxima (m/seg), Evapotranspiración máxima de un día (mm).
comments powered by Disqus